CMP215 SBGL-MPTO
Flight info
| Callsign | CMP215 |
|---|---|
| Flight time | N/A |
| Altitude | 32000 |
| Route | EVRA2A SIDUR UZ10 EDMUS DIDAB EGEVA FIGOS UM415 PAMOD SIDAK UM415 VIR UN420 IRATA SIRI3C |
| Aircraft | B738/M-SDE3FGHIRWY/S |
Departure
| Time | 2026-05-01 15:10 |
|---|---|
| Airport | Rio Galeão – Tom Jobim International Airport (SBGL) |
Arrival
| Time | N/A |
|---|---|
| Airport | Tocumen International Airport (MPTO) |
| Time | Latitude | Longitude | Altitude | Speed | Heading |
|---|---|---|---|---|---|
| 2026-05-01 14:44 | -22.81955 | -43.24332 | 25 ft | 0 kts | 352° |
| 2026-05-01 14:58 | -22.81957 | -43.24332 | 20 ft | 2 kts | 352° |
| 2026-05-01 14:58 | -22.81973 | -43.24330 | 20 ft | 4 kts | 357° |
| 2026-05-01 14:59 | -22.82000 | -43.24330 | 24 ft | 4 kts | 4° |
| 2026-05-01 14:59 | -22.82026 | -43.24330 | 22 ft | 4 kts | 345° |
| 2026-05-01 14:59 | -22.82042 | -43.24316 | 21 ft | 4 kts | 297° |
| 2026-05-01 14:59 | -22.82049 | -43.24292 | 22 ft | 4 kts | 258° |
| 2026-05-01 15:00 | -22.82010 | -43.24261 | 20 ft | 4 kts | 200° |
| 2026-05-01 15:00 | -22.81994 | -43.24253 | 21 ft | 0 kts | 215° |
| 2026-05-01 15:03 | -22.82055 | -43.24299 | 33 ft | 13 kts | 215° |
| 2026-05-01 15:04 | -22.82138 | -43.24300 | 20 ft | 13 kts | 161° |
| 2026-05-01 15:04 | -22.82219 | -43.24333 | 21 ft | 13 kts | 216° |
| 2026-05-01 15:04 | -22.82307 | -43.24403 | 21 ft | 17 kts | 223° |
| 2026-05-01 15:04 | -22.82291 | -43.24514 | 20 ft | 18 kts | 306° |
| 2026-05-01 15:05 | -22.82209 | -43.24635 | 19 ft | 20 kts | 306° |
| 2026-05-01 15:05 | -22.82127 | -43.24760 | 21 ft | 23 kts | 304° |
| 2026-05-01 15:05 | -22.82009 | -43.24940 | 23 ft | 35 kts | 306° |
| 2026-05-01 15:05 | -22.81848 | -43.25180 | 24 ft | 43 kts | 306° |
| 2026-05-01 15:06 | -22.81660 | -43.25463 | 21 ft | 49 kts | 306° |
| 2026-05-01 15:06 | -22.81465 | -43.25761 | 22 ft | 47 kts | 305° |
| 2026-05-01 15:06 | -22.81298 | -43.25979 | 25 ft | 18 kts | 353° |
| 2026-05-01 15:06 | -22.81193 | -43.25868 | 20 ft | 26 kts | 40° |
| 2026-05-01 15:07 | -22.81032 | -43.25744 | 21 ft | 35 kts | 37° |
| 2026-05-01 15:07 | -22.80807 | -43.25570 | 23 ft | 42 kts | 37° |
| 2026-05-01 15:07 | -22.80600 | -43.25409 | 28 ft | 28 kts | 40° |
| 2026-05-01 15:07 | -22.80456 | -43.25417 | 27 ft | 23 kts | 329° |
| 2026-05-01 15:08 | -22.80361 | -43.25478 | 27 ft | 8 kts | 327° |
| 2026-05-01 15:08 | -22.80314 | -43.25510 | 30 ft | 8 kts | 333° |
| 2026-05-01 15:08 | -22.80260 | -43.25514 | 24 ft | 8 kts | 29° |
| 2026-05-01 15:08 | -22.80210 | -43.25489 | 24 ft | 7 kts | 4° |
| 2026-05-01 15:09 | -22.80179 | -43.25473 | 24 ft | 6 kts | 60° |
| 2026-05-01 15:09 | -22.80161 | -43.25407 | 27 ft | 27 kts | 74° |
| 2026-05-01 15:09 | -22.80037 | -43.24928 | 28 ft | 103 kts | 74° |
| 2026-05-01 15:09 | -22.79780 | -43.23940 | 28 ft | 168 kts | 74° |
| 2026-05-01 15:10 | -22.79449 | -43.22604 | 499 ft | 189 kts | 75° |
| 2026-05-01 15:10 | -22.78851 | -43.19766 | 1772 ft | 192 kts | 77° |
| 2026-05-01 15:10 | -22.78540 | -43.18396 | 2338 ft | 186 kts | 77° |
| 2026-05-01 15:11 | -22.78235 | -43.17039 | 2808 ft | 186 kts | 77° |
| 2026-05-01 15:11 | -22.77597 | -43.14117 | 3438 ft | 218 kts | 77° |
| 2026-05-01 15:11 | -22.77240 | -43.12450 | 3639 ft | 234 kts | 77° |
| 2026-05-01 15:12 | -22.76869 | -43.10701 | 4056 ft | 241 kts | 77° |
| 2026-05-01 15:12 | -22.76086 | -43.07008 | 4779 ft | 266 kts | 76° |
| 2026-05-01 15:12 | -22.75667 | -43.05035 | 5466 ft | 267 kts | 76° |
| 2026-05-01 15:13 | -22.73110 | -42.99865 | 7419 ft | 275 kts | 24° |
| 2026-05-01 15:14 | -22.69339 | -42.99833 | 8652 ft | 283 kts | 340° |
| 2026-05-01 15:14 | -22.67489 | -43.00603 | 9336 ft | 288 kts | 340° |
| 2026-05-01 15:14 | -22.63682 | -43.02130 | 10732 ft | 303 kts | 341° |
| 2026-05-01 15:15 | -22.60244 | -43.05109 | 10928 ft | 347 kts | 294° |
| 2026-05-01 15:15 | -22.58633 | -43.10279 | 11182 ft | 378 kts | 289° |
| 2026-05-01 15:16 | -22.56861 | -43.15843 | 11518 ft | 400 kts | 289° |
| 2026-05-01 15:16 | -22.55108 | -43.21590 | 12374 ft | 403 kts | 283° |
| 2026-05-01 15:17 | -22.54110 | -43.27552 | 13152 ft | 408 kts | 279° |
| 2026-05-01 15:18 | -22.52628 | -43.36662 | 14218 ft | 414 kts | 280° |
| 2026-05-01 15:18 | -22.52107 | -43.39734 | 14550 ft | 415 kts | 280° |
| 2026-05-01 15:19 | -22.50511 | -43.48975 | 15495 ft | 420 kts | 280° |
| 2026-05-01 15:19 | -22.49425 | -43.55209 | 16092 ft | 423 kts | 280° |
| 2026-05-01 15:19 | -22.48877 | -43.58342 | 16377 ft | 424 kts | 280° |
| 2026-05-01 15:20 | -22.47784 | -43.64589 | 16980 ft | 427 kts | 280° |
| 2026-05-01 15:20 | -22.47232 | -43.67742 | 17259 ft | 428 kts | 280° |
| 2026-05-01 15:20 | -22.46676 | -43.70912 | 17546 ft | 429 kts | 280° |
| 2026-05-01 15:21 | -22.46118 | -43.74088 | 17827 ft | 431 kts | 280° |
| 2026-05-01 15:21 | -22.45557 | -43.77277 | 18092 ft | 432 kts | 280° |
| 2026-05-01 15:21 | -22.44995 | -43.80472 | 18361 ft | 434 kts | 280° |
| 2026-05-01 15:21 | -22.44430 | -43.83681 | 18588 ft | 435 kts | 280° |
| 2026-05-01 15:22 | -22.43293 | -43.90118 | 19027 ft | 437 kts | 280° |
| 2026-05-01 15:22 | -22.42721 | -43.93353 | 19242 ft | 438 kts | 281° |
| 2026-05-01 15:22 | -22.42147 | -43.96593 | 19449 ft | 439 kts | 280° |
| 2026-05-01 15:23 | -22.41571 | -43.99841 | 19656 ft | 441 kts | 280° |
| 2026-05-01 15:23 | -22.40994 | -44.03095 | 19855 ft | 442 kts | 281° |
| 2026-05-01 15:23 | -22.40413 | -44.06364 | 20061 ft | 443 kts | 281° |
| 2026-05-01 15:23 | -22.39831 | -44.09634 | 20250 ft | 444 kts | 281° |
| 2026-05-01 15:24 | -22.39245 | -44.12922 | 20449 ft | 445 kts | 281° |
| 2026-05-01 15:24 | -22.38667 | -44.16164 | 20641 ft | 446 kts | 281° |
| 2026-05-01 15:24 | -22.38079 | -44.19453 | 20822 ft | 447 kts | 281° |
| 2026-05-01 15:24 | -22.37488 | -44.22761 | 20997 ft | 448 kts | 281° |
| 2026-05-01 15:25 | -22.36896 | -44.26067 | 21169 ft | 450 kts | 281° |
| 2026-05-01 15:25 | -22.36300 | -44.29393 | 21349 ft | 451 kts | 281° |
| 2026-05-01 15:25 | -22.35703 | -44.32721 | 21519 ft | 452 kts | 281° |
| 2026-05-01 15:25 | -22.35103 | -44.36058 | 21699 ft | 452 kts | 281° |
| 2026-05-01 15:26 | -22.34502 | -44.39400 | 21867 ft | 453 kts | 281° |
| 2026-05-01 15:26 | -22.33900 | -44.42741 | 22018 ft | 455 kts | 281° |
| 2026-05-01 15:26 | -22.33292 | -44.46113 | 22178 ft | 456 kts | 281° |
| 2026-05-01 15:26 | -22.32684 | -44.49480 | 22323 ft | 457 kts | 281° |
| 2026-05-01 15:27 | -22.32073 | -44.52855 | 22484 ft | 458 kts | 281° |
| 2026-05-01 15:27 | -22.31464 | -44.56222 | 22641 ft | 458 kts | 281° |
| 2026-05-01 15:27 | -22.30851 | -44.59603 | 22776 ft | 459 kts | 281° |
| 2026-05-01 15:28 | -22.29619 | -44.66392 | 23051 ft | 461 kts | 281° |
| 2026-05-01 15:28 | -22.29008 | -44.69748 | 23193 ft | 462 kts | 281° |
| 2026-05-01 15:28 | -22.28388 | -44.73156 | 23287 ft | 464 kts | 281° |
| 2026-05-01 15:29 | -22.27139 | -44.79996 | 23597 ft | 464 kts | 281° |
| 2026-05-01 15:29 | -22.26511 | -44.83432 | 23720 ft | 465 kts | 281° |
| 2026-05-01 15:29 | -22.25253 | -44.90300 | 23907 ft | 467 kts | 281° |
| 2026-05-01 15:30 | -22.23989 | -44.97188 | 24139 ft | 468 kts | 281° |
| 2026-05-01 15:31 | -22.21443 | -45.11000 | 24520 ft | 470 kts | 281° |
| 2026-05-01 15:31 | -22.20160 | -45.17936 | 24686 ft | 472 kts | 281° |
| 2026-05-01 15:32 | -22.18872 | -45.24881 | 24883 ft | 472 kts | 281° |
| 2026-05-01 15:32 | -22.17586 | -45.31800 | 25048 ft | 474 kts | 281° |
| 2026-05-01 15:33 | -22.15636 | -45.42263 | 25320 ft | 475 kts | 281° |
| 2026-05-01 15:34 | -22.13669 | -45.52772 | 25573 ft | 476 kts | 281° |